首页
METAR-TAF:

METAR-TAF

机场 :

Bowers Field

埃伦斯堡, 华盛顿, 美国

纬度: 47-02-01N, 经度: 120-31-45W, 海拔: 536米

当前天气观测

该预报发布于47分钟前的21:53 UTC
风速4节,风向东南
温度 1°C
湿度 86%
气压 1017 hPa
能見度: 9.7公里
阴天层高于300英尺
轻雾

METAR: KELN 112153Z AUTO 14004KT 6SM BR OVC003 01/M01 A3002 RMK AO2 SLP180 T00061011

时间: 14:40 (22:40 UTC)


TAF: 丢失

超过4000个机场的气象观测和天气预报(METAR&TAF报告)。

可查询的气象台以黄色和红色小点在地图上表示。

将鼠标移到小点上方,可查看气象台名称。

然后点击查看天气观测和预报。

如需切换地图:点击带黑十字的绿色按钮放大地图;点击带横线的绿色按钮缩小地图;或者点击绿色箭头查看邻近地区的地图。


METAR-TAF: